createdAt,value
2022-11-20T00:00:45.418Z,5.05
2022-11-20T00:03:13.801Z,4.37
2022-11-20T00:05:45.279Z,3.97
2022-11-20T00:08:13.127Z,4.30
2022-11-20T00:10:43.968Z,4.10
2022-11-20T00:13:13.377Z,4.43
2022-11-20T00:15:39.360Z,5.83
2022-11-20T00:18:10.034Z,5.90
2022-11-20T00:20:36.658Z,5.40
2022-11-20T00:23:07.699Z,5.93
2022-11-20T00:25:37.615Z,4.27
2022-11-20T00:28:07.926Z,5.17
2022-11-20T00:30:39.236Z,5.57
2022-11-20T00:33:05.855Z,4.93
2022-11-20T00:35:33.409Z,5.60
2022-11-20T00:38:01.034Z,4.80
2022-11-20T00:40:29.364Z,5.33
2022-11-20T00:43:02.897Z,5.60
2022-11-20T00:45:31.409Z,4.17
2022-11-20T00:47:59.762Z,4.10
2022-11-20T00:50:27.305Z,4.10
2022-11-20T00:52:54.886Z,4.40
2022-11-20T00:55:23.268Z,5.28
2022-11-20T00:57:51.612Z,4.43
2022-11-20T01:00:19.244Z,4.30
2022-11-20T01:02:46.773Z,4.33
2022-11-20T01:05:15.154Z,4.87
2022-11-20T01:07:43.841Z,4.60
2022-11-20T01:10:11.504Z,3.87
2022-11-20T01:12:39.878Z,5.90
2022-11-20T01:15:09.480Z,4.53
2022-11-20T01:17:38.176Z,4.23
2022-11-20T01:20:05.938Z,5.60
2022-11-20T01:22:33.899Z,5.87
2022-11-20T01:25:01.514Z,5.80
2022-11-20T01:27:29.029Z,5.93
2022-11-20T01:30:00.977Z,5.63
2022-11-20T01:32:24.257Z,4.93
2022-11-20T01:34:51.815Z,4.47
2022-11-20T01:37:19.478Z,5.03
2022-11-20T01:39:47.131Z,5.00
2022-11-20T01:42:32.763Z,4.67
2022-11-20T01:45:00.327Z,5.80
2022-11-20T01:47:38.254Z,5.43
2022-11-20T01:50:25.038Z,4.90
2022-11-20T01:52:58.547Z,4.90
2022-11-20T01:55:26.200Z,4.27
2022-11-20T01:57:55.405Z,4.50
2022-11-20T02:00:21.419Z,5.10
2022-11-20T02:02:50.864Z,4.85
2022-11-20T02:05:27.913Z,3.87
2022-11-20T02:07:53.219Z,3.70
2022-11-20T02:10:20.814Z,3.30
2022-11-20T02:13:09.324Z,4.30
2022-11-20T02:15:37.192Z,5.22
2022-11-20T02:18:05.202Z,4.63
2022-11-20T02:20:36.213Z,3.87
2022-11-20T02:23:11.686Z,3.90
2022-11-20T02:25:46.109Z,3.90
2022-11-20T02:28:11.714Z,3.83
2022-11-20T02:30:40.735Z,4.45
2022-11-20T02:33:10.042Z,3.30
2022-11-20T02:35:41.076Z,3.53
2022-11-20T02:38:15.099Z,3.47
2022-11-20T02:40:43.007Z,3.43
2022-11-20T02:43:16.135Z,4.30
2022-11-20T02:45:44.439Z,3.57
2022-11-20T02:48:11.952Z,3.20
2022-11-20T02:50:39.471Z,3.13
2022-11-20T02:53:07.064Z,3.43
2022-11-20T02:55:34.675Z,3.92
2022-11-20T02:58:02.205Z,3.23
2022-11-20T03:00:29.764Z,3.23
2022-11-20T03:02:57.285Z,3.10
2022-11-20T03:05:25.588Z,2.90
2022-11-20T03:07:53.501Z,3.30
2022-11-20T03:10:20.978Z,2.87
2022-11-20T03:12:48.502Z,2.60
2022-11-20T03:15:16.648Z,2.80
2022-11-20T03:17:47.477Z,2.60
2022-11-20T03:20:15.248Z,2.90
2022-11-20T03:22:44.328Z,3.70
2022-11-20T03:25:15.367Z,3.12
2022-11-20T03:27:42.149Z,3.10
2022-11-20T03:30:10.599Z,2.70
2022-11-20T03:32:38.415Z,1.90
2022-11-20T03:35:13.646Z,2.90
2022-11-20T03:37:45.079Z,2.30
2022-11-20T03:40:16.748Z,2.57
2022-11-20T03:42:51.234Z,1.90
2022-11-20T03:45:22.177Z,2.13
2022-11-20T03:47:53.162Z,2.47
2022-11-20T03:50:20.978Z,2.93
2022-11-20T03:52:48.847Z,4.07
2022-11-20T03:55:18.785Z,4.78
2022-11-20T03:57:46.526Z,4.30
2022-11-20T04:00:14.323Z,4.63
2022-11-20T04:02:41.866Z,5.13
2022-11-20T04:05:09.496Z,5.03
2022-11-20T04:07:37.074Z,4.77
2022-11-20T04:10:05.377Z,5.20
2022-11-20T04:12:36.024Z,4.17
2022-11-20T04:15:03.580Z,4.77
2022-11-20T04:17:31.115Z,5.85
2022-11-20T04:19:58.961Z,5.67
2022-11-20T04:22:30.303Z,6.03
2022-11-20T04:24:58.870Z,5.37
2022-11-20T04:27:26.630Z,5.13
2022-11-20T04:30:02.527Z,5.23
2022-11-20T04:32:28.652Z,5.13
2022-11-20T04:34:57.151Z,7.07
2022-11-20T04:37:25.202Z,6.00
2022-11-20T04:39:59.705Z,5.97
2022-11-20T04:42:29.639Z,7.18
2022-11-20T04:44:57.164Z,6.07
2022-11-20T04:47:24.702Z,6.60
2022-11-20T04:49:52.293Z,5.90
2022-11-20T04:52:19.767Z,5.70
2022-11-20T04:54:47.294Z,6.67
2022-11-20T04:57:15.595Z,8.25
2022-11-20T04:59:43.131Z,7.03
2022-11-20T05:02:11.431Z,7.40
2022-11-20T05:04:39.008Z,7.70
2022-11-20T05:07:06.572Z,7.70
2022-11-20T05:09:34.066Z,8.23
2022-11-20T05:12:01.660Z,7.70
2022-11-20T05:14:29.158Z,8.10
2022-11-20T05:16:56.714Z,9.98
2022-11-20T05:19:24.334Z,8.63
2022-11-20T05:21:51.856Z,8.67
2022-11-20T05:24:19.391Z,8.30
2022-11-20T05:26:46.933Z,7.50
2022-11-20T05:29:14.470Z,8.27
2022-11-20T05:31:42.163Z,7.83
2022-11-20T05:34:09.675Z,8.63
2022-11-20T05:36:37.969Z,8.93
2022-11-20T05:39:05.515Z,7.97
2022-11-20T05:41:33.090Z,8.17
2022-11-20T05:44:00.619Z,10.70
2022-11-20T05:46:29.241Z,9.23
2022-11-20T05:48:55.704Z,8.43
2022-11-20T05:51:23.232Z,8.07
2022-11-20T05:53:50.770Z,11.12
2022-11-20T05:56:19.374Z,9.40
2022-11-20T05:58:46.913Z,9.20
2022-11-20T06:01:20.849Z,8.77
2022-11-20T06:03:48.562Z,9.63
2022-11-20T06:06:16.820Z,8.83
2022-11-20T06:08:44.339Z,10.03
2022-11-20T06:11:11.923Z,8.20
2022-11-20T06:13:42.303Z,8.87
2022-11-20T06:16:06.979Z,9.53
2022-11-20T06:18:35.336Z,8.97
2022-11-20T06:21:02.866Z,8.87
2022-11-20T06:23:33.074Z,9.47
2022-11-20T06:26:06.686Z,8.77
2022-11-20T06:28:34.226Z,9.63
2022-11-20T06:31:01.756Z,9.43
2022-11-20T06:33:31.208Z,9.57
2022-11-20T06:36:01.635Z,9.13
2022-11-20T06:38:26.278Z,9.67
2022-11-20T06:40:54.622Z,9.07
2022-11-20T06:43:22.175Z,8.97
2022-11-20T06:45:55.486Z,11.12
2022-11-20T06:48:23.041Z,8.87
2022-11-20T06:50:50.577Z,8.60
2022-11-20T06:53:18.103Z,9.60
2022-11-20T06:55:48.134Z,8.07
2022-11-20T06:58:15.658Z,8.23
2022-11-20T07:00:43.999Z,7.70
2022-11-20T07:03:11.535Z,7.53
2022-11-20T07:05:39.048Z,7.80
2022-11-20T07:08:07.364Z,7.67
2022-11-20T07:10:34.966Z,6.80
2022-11-20T07:13:02.502Z,6.90
2022-11-20T07:15:30.050Z,8.80
2022-11-20T07:17:58.204Z,8.27
2022-11-20T07:20:25.746Z,8.27
2022-11-20T07:22:56.939Z,7.80
2022-11-20T07:25:24.523Z,7.77
2022-11-20T07:27:52.042Z,7.27
2022-11-20T07:30:19.583Z,9.75
2022-11-20T07:32:49.811Z,8.60
2022-11-20T07:35:18.305Z,8.40
2022-11-20T07:37:45.752Z,7.53
2022-11-20T07:40:13.513Z,7.50
2022-11-20T07:42:41.057Z,7.97
2022-11-20T07:45:08.592Z,7.50
2022-11-20T07:47:36.929Z,7.67
2022-11-20T07:50:04.458Z,7.97
2022-11-20T07:52:32.002Z,7.27
2022-11-20T07:55:00.373Z,7.03
2022-11-20T07:57:28.553Z,7.20
2022-11-20T07:59:55.405Z,8.93
2022-11-20T08:02:23.894Z,7.27
2022-11-20T08:04:51.417Z,6.70
2022-11-20T08:07:19.005Z,5.63
2022-11-20T08:09:46.851Z,6.27
2022-11-20T08:12:38.651Z,6.55
2022-11-20T08:15:12.564Z,4.27
2022-11-20T08:17:33.964Z,6.03
2022-11-20T08:20:01.500Z,5.80
2022-11-20T08:22:29.366Z,4.15
2022-11-20T08:24:56.901Z,3.53
2022-11-20T08:27:24.424Z,3.10
2022-11-20T08:29:52.011Z,3.10
2022-11-20T08:32:20.311Z,2.97
2022-11-20T08:34:47.845Z,2.63
2022-11-20T08:37:16.190Z,2.50
2022-11-20T08:39:43.721Z,2.77
2022-11-20T08:42:11.304Z,2.93
2022-11-20T08:44:38.877Z,2.83
2022-11-20T08:47:06.874Z,2.90
2022-11-20T08:49:34.335Z,3.80
2022-11-20T08:52:01.905Z,3.67
2022-11-20T08:54:29.429Z,3.70
2022-11-20T08:56:56.952Z,4.55
2022-11-20T08:59:44.031Z,4.35
2022-11-20T09:01:52.082Z,3.27
2022-11-20T09:04:19.618Z,3.87
2022-11-20T09:06:47.208Z,3.80
2022-11-20T09:09:14.737Z,3.47
2022-11-20T09:11:42.262Z,4.43
2022-11-20T09:14:10.584Z,3.93
2022-11-20T09:16:38.102Z,2.80
2022-11-20T09:21:33.531Z,6.33
2022-11-20T09:24:01.121Z,3.47
2022-11-20T09:26:28.622Z,3.33
2022-11-20T09:28:58.103Z,3.10
2022-11-20T09:31:23.748Z,3.40
2022-11-20T09:33:51.286Z,3.70
2022-11-20T09:36:18.844Z,3.27
2022-11-20T09:38:46.533Z,4.22
2022-11-20T09:41:16.709Z,3.80
2022-11-20T09:44:14.787Z,3.80
2022-11-20T09:47:10.039Z,3.30
2022-11-20T09:49:44.094Z,3.63
2022-11-20T09:52:39.098Z,3.67
2022-11-20T09:55:06.997Z,4.53
2022-11-20T09:57:37.437Z,3.67
2022-11-20T10:00:04.995Z,3.20
2022-11-20T10:02:32.594Z,2.10
2022-11-20T10:05:27.656Z,3.37
2022-11-20T10:08:03.884Z,2.77
2022-11-20T10:11:08.370Z,2.80
2022-11-20T10:13:43.014Z,2.80
2022-11-20T10:16:41.486Z,2.57
2022-11-20T10:19:36.451Z,2.50
2022-11-20T10:22:16.263Z,2.70
2022-11-20T10:24:43.960Z,2.50
2022-11-20T10:27:35.473Z,2.53
2022-11-20T10:30:03.253Z,2.50
2022-11-20T10:32:31.716Z,3.40
2022-11-20T10:35:05.159Z,3.50
2022-11-20T10:37:32.743Z,3.33
2022-11-20T10:40:12.094Z,2.93
2022-11-20T10:42:40.237Z,3.00
2022-11-20T10:45:16.824Z,2.53
2022-11-20T10:47:44.360Z,2.50
2022-11-20T10:50:11.945Z,2.60
2022-11-20T10:52:57.954Z,2.83
2022-11-20T10:55:40.485Z,2.53
2022-11-20T10:58:17.524Z,2.27
2022-11-20T11:00:45.146Z,2.70
2022-11-20T11:03:28.229Z,4.13
2022-11-20T11:06:10.558Z,3.30
2022-11-20T11:08:41.884Z,2.60
2022-11-20T11:11:24.260Z,3.00
2022-11-20T11:13:51.809Z,2.70
2022-11-20T11:16:24.921Z,2.10
2022-11-20T11:18:52.448Z,2.50
2022-11-20T11:21:22.994Z,2.00
2022-11-20T11:23:50.503Z,2.40
2022-11-20T11:26:20.766Z,1.90
2022-11-20T11:29:03.158Z,1.60
2022-11-20T11:31:31.457Z,2.37
2022-11-20T11:34:08.246Z,2.17
2022-11-20T11:36:35.793Z,2.07
2022-11-20T11:39:03.373Z,1.90
2022-11-20T11:41:31.047Z,1.97
2022-11-20T11:44:19.639Z,1.87
2022-11-20T11:46:56.130Z,2.35
2022-11-20T11:49:23.937Z,2.20
2022-11-20T11:52:09.585Z,2.03
2022-11-20T11:54:48.907Z,1.67
2022-11-20T11:57:22.479Z,1.97
2022-11-20T12:00:05.689Z,2.33
2022-11-20T12:02:35.989Z,2.13
2022-11-20T12:05:12.339Z,2.53
2022-11-20T12:07:47.293Z,2.77
2022-11-20T12:10:15.857Z,1.57
2022-11-20T12:12:43.391Z,2.25
2022-11-20T12:15:14.844Z,1.60
2022-11-20T12:17:42.377Z,2.10
2022-11-20T12:20:13.628Z,1.80
2022-11-20T12:22:56.278Z,2.10
2022-11-20T12:25:23.808Z,1.90
2022-11-20T12:28:19.360Z,1.47
2022-11-20T12:30:49.375Z,1.33
2022-11-20T12:33:58.604Z,1.70
2022-11-20T12:36:41.098Z,1.50
2022-11-20T12:39:35.547Z,1.40
2022-11-20T12:42:32.916Z,1.43
2022-11-20T12:45:16.592Z,1.60
2022-11-20T12:47:59.223Z,1.50
2022-11-20T12:50:53.435Z,1.03
2022-11-20T12:53:17.774Z,1.77
2022-11-20T12:56:03.604Z,1.10
2022-11-20T12:58:43.145Z,1.40
2022-11-20T13:01:16.856Z,1.40
2022-11-20T13:03:44.330Z,1.33
2022-11-20T13:06:15.590Z,1.27
2022-11-20T13:08:44.310Z,1.37
2022-11-20T13:11:14.524Z,1.20
2022-11-20T13:13:44.998Z,1.43
2022-11-20T13:16:15.527Z,1.00
2022-11-20T13:18:43.830Z,1.50
2022-11-20T13:21:20.192Z,2.07
2022-11-20T13:23:47.735Z,2.55
2022-11-20T13:26:20.732Z,3.00
2022-11-20T13:28:48.418Z,2.10
2022-11-20T13:31:34.314Z,1.60
2022-11-20T13:34:01.868Z,1.40
2022-11-20T13:36:29.418Z,1.47
2022-11-20T13:38:56.974Z,1.40
2022-11-20T13:41:34.119Z,1.30
2022-11-20T13:44:10.679Z,1.80
2022-11-20T13:46:41.383Z,1.77
2022-11-20T13:49:08.909Z,1.70
2022-11-20T13:51:45.067Z,1.77
2022-11-20T13:54:18.735Z,1.63
2022-11-20T13:56:54.899Z,2.00
2022-11-20T13:59:44.243Z,1.80
2022-11-20T14:02:14.497Z,1.87
2022-11-20T14:04:42.021Z,1.87
2022-11-20T14:07:09.609Z,1.37
2022-11-20T14:09:37.119Z,2.13
2022-11-20T14:12:04.664Z,3.05
2022-11-20T14:14:32.231Z,2.73
2022-11-20T14:17:08.576Z,1.53
2022-11-20T14:19:37.953Z,1.77
2022-11-20T14:22:20.441Z,1.40
2022-11-20T14:24:48.010Z,2.00
2022-11-20T14:27:18.104Z,1.58
2022-11-20T14:29:45.631Z,1.33
2022-11-20T14:32:13.177Z,1.50
2022-11-20T14:34:40.702Z,1.30
2022-11-20T14:37:11.424Z,1.60
2022-11-20T14:39:39.335Z,2.10
2022-11-20T14:42:16.626Z,1.67
2022-11-20T14:44:45.090Z,1.43
2022-11-20T14:47:15.281Z,2.53
2022-11-20T14:49:42.811Z,2.17
2022-11-20T14:52:22.281Z,2.73
2022-11-20T14:54:49.796Z,2.10
2022-11-20T14:57:40.921Z,1.90
2022-11-20T15:00:14.411Z,1.50
2022-11-20T15:02:45.834Z,1.33
2022-11-20T15:05:13.353Z,2.30
2022-11-20T15:07:43.621Z,2.00
2022-11-20T15:10:11.235Z,1.63
2022-11-20T15:12:47.261Z,2.20
2022-11-20T15:15:14.775Z,1.80
2022-11-20T15:17:42.337Z,2.47
2022-11-20T15:20:15.534Z,2.72
2022-11-20T15:22:43.117Z,2.33
2022-11-20T15:25:14.431Z,1.73
2022-11-20T15:27:41.978Z,1.97
2022-11-20T15:30:15.552Z,2.43
2022-11-20T15:32:43.116Z,1.77
2022-11-20T15:35:10.656Z,1.70
2022-11-20T15:37:38.212Z,2.50
2022-11-20T15:40:06.594Z,2.27
2022-11-20T15:42:34.099Z,1.77
2022-11-20T15:45:01.654Z,1.60
2022-11-20T15:47:32.201Z,1.40
2022-11-20T15:49:59.920Z,1.33
2022-11-20T15:52:30.554Z,1.70
2022-11-20T15:54:55.044Z,1.30
2022-11-20T15:57:22.534Z,1.40
2022-11-20T15:59:50.059Z,1.42
2022-11-20T16:02:19.359Z,1.35
2022-11-20T16:04:45.158Z,1.33
2022-11-20T16:07:12.755Z,1.33
2022-11-20T16:09:40.238Z,6.73
2022-11-20T16:12:07.782Z,1.17
2022-11-20T16:14:37.954Z,1.30
2022-11-20T16:17:06.308Z,1.60
2022-11-20T16:19:33.851Z,1.98
2022-11-20T16:22:03.827Z,1.03
2022-11-20T16:24:31.421Z,1.00
2022-11-20T16:26:58.959Z,1.23
2022-11-20T16:29:26.511Z,1.77
2022-11-20T16:31:55.019Z,2.10
2022-11-20T16:34:23.331Z,2.10
2022-11-20T16:36:50.856Z,3.13
2022-11-20T16:39:23.362Z,1.80
2022-11-20T16:41:45.934Z,0.77
2022-11-20T16:44:15.388Z,1.80
2022-11-20T16:46:43.012Z,2.00
2022-11-20T16:49:13.058Z,2.67
2022-11-20T16:51:40.596Z,0.90
2022-11-20T16:54:08.161Z,1.53
2022-11-20T16:56:35.678Z,1.30
2022-11-20T16:59:03.204Z,1.50
2022-11-20T17:01:31.479Z,5.22
2022-11-20T17:03:58.992Z,1.70
2022-11-20T17:06:27.295Z,1.37
2022-11-20T17:08:54.819Z,1.17
2022-11-20T17:11:22.400Z,1.17
2022-11-20T17:13:49.945Z,0.50
2022-11-20T17:16:17.471Z,0.63
2022-11-20T17:18:45.398Z,0.70
2022-11-20T17:21:12.954Z,0.70
2022-11-20T17:23:40.476Z,0.50
2022-11-20T17:26:16.765Z,0.63
2022-11-20T17:28:45.047Z,1.60
2022-11-20T17:31:13.320Z,1.90
2022-11-20T17:33:41.653Z,0.80
2022-11-20T17:36:09.178Z,0.80
2022-11-20T17:38:36.724Z,0.73
2022-11-20T17:41:04.267Z,1.50
2022-11-20T17:43:35.691Z,1.12
2022-11-20T17:46:00.106Z,1.43
2022-11-20T17:48:28.438Z,0.90
2022-11-20T17:50:55.952Z,1.33
2022-11-20T17:53:23.476Z,1.00
2022-11-20T17:56:09.514Z,0.80
2022-11-20T17:58:37.816Z,0.80
2022-11-20T18:01:05.343Z,0.73
2022-11-20T18:03:33.142Z,1.10
2022-11-20T18:06:00.674Z,0.90
2022-11-20T18:08:28.191Z,1.17
2022-11-20T18:10:55.737Z,1.23
2022-11-20T18:13:23.250Z,1.43
2022-11-20T18:15:50.767Z,1.03
2022-11-20T18:18:18.331Z,1.40
2022-11-20T18:20:45.855Z,1.33
2022-11-20T18:23:13.365Z,1.47
2022-11-20T18:25:41.867Z,1.27
2022-11-20T18:28:10.149Z,1.20
2022-11-20T18:30:37.673Z,1.17
2022-11-20T18:33:05.249Z,1.20
2022-11-20T18:35:32.764Z,1.27
2022-11-20T18:38:00.297Z,1.60
2022-11-20T18:40:27.871Z,2.20
2022-11-20T18:43:13.583Z,1.80
2022-11-20T18:45:41.168Z,2.03
2022-11-20T18:48:08.682Z,1.80
2022-11-20T18:50:36.208Z,2.10
2022-11-20T18:53:04.540Z,2.53
2022-11-20T18:55:32.074Z,3.10
2022-11-20T18:57:59.588Z,2.43
2022-11-20T19:00:28.215Z,2.33
2022-11-20T19:02:56.626Z,2.43
2022-11-20T19:05:24.150Z,2.83
2022-11-20T19:07:51.715Z,4.77
2022-11-20T19:10:19.232Z,3.93
2022-11-20T19:12:46.745Z,4.93
2022-11-20T19:15:14.290Z,1.90
2022-11-20T19:17:41.805Z,4.67
2022-11-20T19:20:09.311Z,4.50
2022-11-20T19:22:36.878Z,3.10
2022-11-20T19:25:05.388Z,3.40
2022-11-20T19:27:32.972Z,5.97
2022-11-20T19:30:00.538Z,3.50
2022-11-20T19:32:28.063Z,19.47
2022-11-20T19:34:55.591Z,5.67
2022-11-20T19:37:24.313Z,5.82
2022-11-20T19:39:51.838Z,7.00
2022-11-20T19:42:19.371Z,3.07
2022-11-20T19:44:46.953Z,2.57
2022-11-20T19:47:15.219Z,1.70
2022-11-20T19:49:43.514Z,2.17
2022-11-20T19:52:11.078Z,2.42
2022-11-20T19:54:38.591Z,4.00
2022-11-20T19:57:06.097Z,3.03
2022-11-20T19:59:33.663Z,2.23
2022-11-20T20:02:01.250Z,7.77
2022-11-20T20:04:29.469Z,8.60
2022-11-20T20:06:57.054Z,2.87
2022-11-20T20:09:24.723Z,6.43
2022-11-20T20:11:52.871Z,8.63
2022-11-20T20:14:20.721Z,1.90
2022-11-20T20:16:48.226Z,2.50
2022-11-20T20:19:15.749Z,2.00
2022-11-20T20:21:44.982Z,1.50
2022-11-20T20:24:12.493Z,2.07
2022-11-20T20:26:40.013Z,3.67
2022-11-20T20:29:07.613Z,2.93
2022-11-20T20:31:35.137Z,2.53
2022-11-20T20:34:02.671Z,7.23
2022-11-20T20:36:30.265Z,3.70
2022-11-20T20:38:57.808Z,2.57
2022-11-20T20:41:25.322Z,2.57
2022-11-20T20:44:11.035Z,2.73
2022-11-20T20:46:38.586Z,2.30
2022-11-20T20:49:06.913Z,3.13
2022-11-20T20:51:34.520Z,3.67
2022-11-20T20:54:02.807Z,2.30
2022-11-20T20:56:30.322Z,2.63
2022-11-20T20:58:57.867Z,2.37
2022-11-20T21:01:25.402Z,3.50
2022-11-20T21:03:52.910Z,4.35
2022-11-20T21:06:20.493Z,2.60
2022-11-20T21:08:48.019Z,3.67
2022-11-20T21:11:15.532Z,2.83
2022-11-20T21:13:43.144Z,3.13
2022-11-20T21:16:10.662Z,3.40
2022-11-20T21:18:38.182Z,2.73
2022-11-20T21:21:26.506Z,2.50
2022-11-20T21:23:54.013Z,2.37
2022-11-20T21:26:21.578Z,2.73
2022-11-20T21:28:49.156Z,3.47
2022-11-20T21:31:16.677Z,2.90
2022-11-20T21:33:46.758Z,2.43
2022-11-20T21:36:15.183Z,2.40
2022-11-20T21:38:42.715Z,2.97
2022-11-20T21:41:10.265Z,2.93
2022-11-20T21:43:38.179Z,2.37
2022-11-20T21:46:05.690Z,3.23
2022-11-20T21:48:33.218Z,3.20
2022-11-20T21:51:06.834Z,3.30
2022-11-20T21:53:31.201Z,2.70
2022-11-20T21:55:58.727Z,3.47
2022-11-20T21:58:27.085Z,3.30
2022-11-20T22:00:54.612Z,4.27
2022-11-20T22:03:22.147Z,3.00
2022-11-20T22:05:58.652Z,3.27
2022-11-20T22:08:26.205Z,3.60
2022-11-20T22:10:53.702Z,3.90
2022-11-20T22:13:39.490Z,3.07
2022-11-20T22:16:07.777Z,3.20
2022-11-20T22:18:36.056Z,2.87
2022-11-20T22:21:03.666Z,3.00
2022-11-20T22:23:31.193Z,3.47
2022-11-20T22:26:01.356Z,3.70
2022-11-20T22:28:28.980Z,3.40
2022-11-20T22:30:59.202Z,3.95
2022-11-20T22:33:26.738Z,3.53
2022-11-20T22:36:00.681Z,2.97
2022-11-20T22:38:29.738Z,3.87
2022-11-20T22:41:08.768Z,2.97
2022-11-20T22:43:37.060Z,3.37
2022-11-20T22:46:04.591Z,3.17
2022-11-20T22:48:32.178Z,3.23
2022-11-20T22:51:12.210Z,3.20
2022-11-20T22:53:39.845Z,3.47
2022-11-20T22:56:07.347Z,3.00
2022-11-20T22:58:35.633Z,2.90
2022-11-20T23:01:15.859Z,2.47
2022-11-20T23:03:46.368Z,2.93
2022-11-20T23:06:13.822Z,3.75
2022-11-20T23:08:41.366Z,3.85
2022-11-20T23:11:08.890Z,3.03
2022-11-20T23:13:36.526Z,2.70
2022-11-20T23:16:04.659Z,2.50
2022-11-20T23:18:32.183Z,2.63
2022-11-20T23:21:05.606Z,3.50
2022-11-20T23:23:33.473Z,3.23
2022-11-20T23:26:00.990Z,2.43
2022-11-20T23:28:28.513Z,2.97
2022-11-20T23:30:56.067Z,3.10
2022-11-20T23:33:23.593Z,2.57
2022-11-20T23:35:51.878Z,2.10
2022-11-20T23:38:19.442Z,2.67
2022-11-20T23:40:49.931Z,2.27
2022-11-20T23:43:17.474Z,2.10
2022-11-20T23:45:44.991Z,1.93
2022-11-20T23:48:12.516Z,2.13
2022-11-20T23:50:40.041Z,1.90
2022-11-20T23:53:07.609Z,1.67
2022-11-20T23:55:35.121Z,2.17
2022-11-20T23:58:02.654Z,2.03
